TimeEST,TemperatureF,Dew PointF,Humidity,Sea Level PressureIn,VisibilityMPH,Wind Direction,Wind SpeedMPH,Gust SpeedMPH,PrecipitationIn,Events,Conditions,WindDirDegrees,DateUTC
12:53 AM,35.1,28.9,78,30.36,10.0,Calm,Calm,-,N/A,,Clear,0,2012-11-19 05:53:00
1:53 AM,34.0,27.0,75,30.35,10.0,Calm,Calm,-,N/A,,Clear,0,2012-11-19 06:53:00
2:53 AM,36.0,30.0,79,30.36,10.0,Calm,Calm,-,N/A,,Clear,0,2012-11-19 07:53:00
3:53 AM,35.1,28.0,76,30.34,10.0,Calm,Calm,-,N/A,,Clear,0,2012-11-19 08:53:00
4:53 AM,35.1,28.9,78,30.34,10.0,Calm,Calm,-,N/A,,Clear,0,2012-11-19 09:53:00
5:53 AM,35.1,28.9,78,30.34,10.0,Calm,Calm,-,N/A,,Clear,0,2012-11-19 10:53:00
6:53 AM,35.1,28.0,76,30.34,10.0,Calm,Calm,-,N/A,,Clear,0,2012-11-19 11:53:00
7:53 AM,36.0,28.9,76,30.34,10.0,Calm,Calm,-,N/A,,Clear,0,2012-11-19 12:53:00
8:53 AM,37.0,32.0,82,30.34,10.0,ESE,4.6,-,N/A,,Clear,120,2012-11-19 13:53:00
9:53 AM,45.0,30.0,56,30.34,10.0,Calm,Calm,-,N/A,,Clear,0,2012-11-19 14:53:00
10:53 AM,50.0,32.0,50,30.34,10.0,SE,4.6,-,N/A,,Clear,140,2012-11-19 15:53:00
11:53 AM,54.0,30.9,41,30.31,10.0,SE,4.6,-,N/A,,Clear,140,2012-11-19 16:53:00
12:53 PM,55.9,33.1,42,30.29,10.0,SSW,3.5,-,N/A,,Clear,210,2012-11-19 17:53:00
1:53 PM,55.9,33.1,42,30.26,10.0,Calm,Calm,-,N/A,,Clear,0,2012-11-19 18:53:00
2:53 PM,55.9,34.0,44,30.24,10.0,South,3.5,-,N/A,,Clear,170,2012-11-19 19:53:00
3:53 PM,55.9,34.0,44,30.24,10.0,Calm,Calm,-,N/A,,Clear,0,2012-11-19 20:53:00
4:53 PM,55.0,33.1,43,30.23,10.0,Calm,Calm,-,N/A,,Clear,0,2012-11-19 21:53:00
5:53 PM,48.9,35.1,59,30.22,10.0,Calm,Calm,-,N/A,,Clear,0,2012-11-19 22:53:00
6:53 PM,48.9,37.0,64,30.22,10.0,Calm,Calm,-,N/A,,Clear,0,2012-11-19 23:53:00
7:53 PM,48.0,41.0,77,30.22,10.0,Calm,Calm,-,N/A,,Clear,0,2012-11-20 00:53:00
8:53 PM,48.0,39.9,74,30.21,10.0,Calm,Calm,-,N/A,,Scattered Clouds,0,2012-11-20 01:53:00
10:53 PM,46.0,41.0,83,30.18,10.0,Calm,Calm,-,N/A,,Overcast,0,2012-11-20 03:53:00
11:53 PM,46.0,41.0,83,30.17,10.0,Calm,Calm,-,N/A,,Overcast,0,2012-11-20 04:53:00